sensor_id;sensor_type;location;lat;lon;timestamp;P1;durP1;ratioP1;P2;durP2;ratioP2
6306;SDS011;3186;54.062;9.962;2023-07-29T00:01:19;3.87;;;3.23;;
6306;SDS011;3186;54.062;9.962;2023-07-29T00:03:46;6.93;;;3.10;;
6306;SDS011;3186;54.062;9.962;2023-07-29T00:06:12;5.67;;;3.07;;
6306;SDS011;3186;54.062;9.962;2023-07-29T00:08:39;3.73;;;3.33;;
6306;SDS011;3186;54.062;9.962;2023-07-29T00:11:06;4.43;;;3.10;;
6306;SDS011;3186;54.062;9.962;2023-07-29T00:13:31;7.13;;;3.13;;
6306;SDS011;3186;54.062;9.962;2023-07-29T00:15:58;3.90;;;3.03;;
6306;SDS011;3186;54.062;9.962;2023-07-29T00:18:24;8.43;;;3.97;;
6306;SDS011;3186;54.062;9.962;2023-07-29T00:20:50;7.20;;;3.17;;
6306;SDS011;3186;54.062;9.962;2023-07-29T00:23:17;5.77;;;3.53;;
6306;SDS011;3186;54.062;9.962;2023-07-29T00:25:44;3.70;;;2.80;;
6306;SDS011;3186;54.062;9.962;2023-07-29T00:28:11;7.03;;;3.70;;
6306;SDS011;3186;54.062;9.962;2023-07-29T00:30:38;6.53;;;3.37;;
6306;SDS011;3186;54.062;9.962;2023-07-29T00:33:04;5.10;;;3.17;;
6306;SDS011;3186;54.062;9.962;2023-07-29T00:35:30;4.67;;;4.17;;
6306;SDS011;3186;54.062;9.962;2023-07-29T00:37:59;3.60;;;2.93;;
6306;SDS011;3186;54.062;9.962;2023-07-29T00:40:25;4.10;;;3.73;;
6306;SDS011;3186;54.062;9.962;2023-07-29T00:42:54;6.50;;;4.00;;
6306;SDS011;3186;54.062;9.962;2023-07-29T00:45:20;7.37;;;4.00;;
6306;SDS011;3186;54.062;9.962;2023-07-29T00:47:46;9.07;;;4.50;;
6306;SDS011;3186;54.062;9.962;2023-07-29T00:50:15;4.73;;;4.10;;
6306;SDS011;3186;54.062;9.962;2023-07-29T00:52:42;8.40;;;4.60;;
6306;SDS011;3186;54.062;9.962;2023-07-29T00:55:08;6.53;;;5.23;;
6306;SDS011;3186;54.062;9.962;2023-07-29T00:57:34;6.43;;;4.67;;
6306;SDS011;3186;54.062;9.962;2023-07-29T01:00:00;5.53;;;4.23;;
6306;SDS011;3186;54.062;9.962;2023-07-29T01:02:28;5.80;;;4.43;;
6306;SDS011;3186;54.062;9.962;2023-07-29T01:04:56;5.50;;;4.57;;
6306;SDS011;3186;54.062;9.962;2023-07-29T01:10:02;7.37;;;4.63;;
6306;SDS011;3186;54.062;9.962;2023-07-29T01:12:44;5.63;;;4.23;;
6306;SDS011;3186;54.062;9.962;2023-07-29T01:15:19;6.17;;;4.17;;
6306;SDS011;3186;54.062;9.962;2023-07-29T01:17:55;4.83;;;3.27;;
6306;SDS011;3186;54.062;9.962;2023-07-29T01:20:29;4.13;;;3.73;;
6306;SDS011;3186;54.062;9.962;2023-07-29T01:22:59;5.53;;;3.47;;
6306;SDS011;3186;54.062;9.962;2023-07-29T01:25:24;3.93;;;3.40;;
6306;SDS011;3186;54.062;9.962;2023-07-29T01:27:52;8.47;;;3.77;;
6306;SDS011;3186;54.062;9.962;2023-07-29T01:30:18;5.70;;;3.97;;
6306;SDS011;3186;54.062;9.962;2023-07-29T01:32:53;6.33;;;3.60;;
6306;SDS011;3186;54.062;9.962;2023-07-29T01:38:09;6.83;;;3.80;;
6306;SDS011;3186;54.062;9.962;2023-07-29T01:40:42;5.40;;;3.37;;
6306;SDS011;3186;54.062;9.962;2023-07-29T01:43:08;6.13;;;3.83;;
6306;SDS011;3186;54.062;9.962;2023-07-29T01:45:35;5.53;;;3.60;;
6306;SDS011;3186;54.062;9.962;2023-07-29T01:48:06;5.57;;;3.53;;
6306;SDS011;3186;54.062;9.962;2023-07-29T01:50:33;6.57;;;3.43;;
6306;SDS011;3186;54.062;9.962;2023-07-29T01:53:00;5.37;;;3.70;;
6306;SDS011;3186;54.062;9.962;2023-07-29T01:55:26;7.47;;;3.73;;
6306;SDS011;3186;54.062;9.962;2023-07-29T01:57:53;4.67;;;3.60;;
6306;SDS011;3186;54.062;9.962;2023-07-29T02:00:19;4.20;;;3.40;;
6306;SDS011;3186;54.062;9.962;2023-07-29T02:02:47;3.83;;;3.50;;
6306;SDS011;3186;54.062;9.962;2023-07-29T02:05:13;4.20;;;3.57;;
6306;SDS011;3186;54.062;9.962;2023-07-29T02:07:39;3.73;;;3.33;;
6306;SDS011;3186;54.062;9.962;2023-07-29T02:10:04;4.90;;;3.50;;
6306;SDS011;3186;54.062;9.962;2023-07-29T02:12:31;4.17;;;3.77;;
6306;SDS011;3186;54.062;9.962;2023-07-29T02:14:57;5.00;;;3.27;;
6306;SDS011;3186;54.062;9.962;2023-07-29T02:17:23;4.80;;;3.93;;
6306;SDS011;3186;54.062;9.962;2023-07-29T02:19:49;7.00;;;3.70;;
6306;SDS011;3186;54.062;9.962;2023-07-29T02:22:16;4.70;;;3.80;;
6306;SDS011;3186;54.062;9.962;2023-07-29T02:24:43;4.53;;;3.40;;
6306;SDS011;3186;54.062;9.962;2023-07-29T02:27:10;4.90;;;3.33;;
6306;SDS011;3186;54.062;9.962;2023-07-29T02:29:36;4.10;;;3.13;;
6306;SDS011;3186;54.062;9.962;2023-07-29T02:32:02;3.67;;;3.23;;
6306;SDS011;3186;54.062;9.962;2023-07-29T02:34:29;4.53;;;3.50;;
6306;SDS011;3186;54.062;9.962;2023-07-29T02:36:55;7.90;;;3.70;;
6306;SDS011;3186;54.062;9.962;2023-07-29T02:39:21;6.67;;;3.30;;
6306;SDS011;3186;54.062;9.962;2023-07-29T02:41:48;4.63;;;3.40;;
6306;SDS011;3186;54.062;9.962;2023-07-29T02:44:15;5.10;;;3.67;;
6306;SDS011;3186;54.062;9.962;2023-07-29T02:46:41;5.20;;;4.00;;
6306;SDS011;3186;54.062;9.962;2023-07-29T02:49:07;4.37;;;3.20;;
6306;SDS011;3186;54.062;9.962;2023-07-29T02:51:33;6.80;;;3.03;;
6306;SDS011;3186;54.062;9.962;2023-07-29T02:53:58;4.63;;;3.63;;
6306;SDS011;3186;54.062;9.962;2023-07-29T02:56:24;3.47;;;3.10;;
6306;SDS011;3186;54.062;9.962;2023-07-29T02:58:50;4.03;;;3.20;;
6306;SDS011;3186;54.062;9.962;2023-07-29T03:01:19;4.80;;;3.60;;
6306;SDS011;3186;54.062;9.962;2023-07-29T03:03:45;4.97;;;3.33;;
6306;SDS011;3186;54.062;9.962;2023-07-29T03:06:11;3.43;;;3.03;;
6306;SDS011;3186;54.062;9.962;2023-07-29T03:08:38;3.73;;;2.80;;
6306;SDS011;3186;54.062;9.962;2023-07-29T03:11:06;3.73;;;3.33;;
6306;SDS011;3186;54.062;9.962;2023-07-29T03:13:33;4.40;;;3.10;;
6306;SDS011;3186;54.062;9.962;2023-07-29T03:16:08;4.60;;;3.47;;
6306;SDS011;3186;54.062;9.962;2023-07-29T03:18:47;4.50;;;3.37;;
6306;SDS011;3186;54.062;9.962;2023-07-29T03:21:14;5.53;;;3.27;;
6306;SDS011;3186;54.062;9.962;2023-07-29T03:23:40;4.10;;;3.37;;
6306;SDS011;3186;54.062;9.962;2023-07-29T03:26:06;4.23;;;2.83;;
6306;SDS011;3186;54.062;9.962;2023-07-29T03:28:38;5.57;;;2.80;;
6306;SDS011;3186;54.062;9.962;2023-07-29T03:31:05;3.20;;;2.90;;
6306;SDS011;3186;54.062;9.962;2023-07-29T03:33:32;4.10;;;3.30;;
6306;SDS011;3186;54.062;9.962;2023-07-29T03:35:58;2.80;;;2.60;;
6306;SDS011;3186;54.062;9.962;2023-07-29T03:38:24;5.43;;;2.93;;
6306;SDS011;3186;54.062;9.962;2023-07-29T03:40:50;2.87;;;2.67;;
6306;SDS011;3186;54.062;9.962;2023-07-29T03:43:16;3.27;;;2.73;;
6306;SDS011;3186;54.062;9.962;2023-07-29T03:45:42;2.70;;;2.50;;
6306;SDS011;3186;54.062;9.962;2023-07-29T03:48:08;3.63;;;3.17;;
6306;SDS011;3186;54.062;9.962;2023-07-29T03:50:35;5.40;;;3.00;;
6306;SDS011;3186;54.062;9.962;2023-07-29T03:53:04;4.33;;;2.97;;
6306;SDS011;3186;54.062;9.962;2023-07-29T03:55:31;2.90;;;2.60;;
6306;SDS011;3186;54.062;9.962;2023-07-29T03:57:58;5.93;;;2.97;;
6306;SDS011;3186;54.062;9.962;2023-07-29T04:00:24;4.13;;;3.37;;
6306;SDS011;3186;54.062;9.962;2023-07-29T04:02:51;5.50;;;3.80;;
6306;SDS011;3186;54.062;9.962;2023-07-29T04:05:17;4.93;;;3.60;;
6306;SDS011;3186;54.062;9.962;2023-07-29T04:07:43;3.93;;;3.47;;
6306;SDS011;3186;54.062;9.962;2023-07-29T04:10:09;6.93;;;4.30;;
6306;SDS011;3186;54.062;9.962;2023-07-29T04:12:37;7.27;;;3.80;;
6306;SDS011;3186;54.062;9.962;2023-07-29T04:15:04;3.93;;;3.53;;
6306;SDS011;3186;54.062;9.962;2023-07-29T04:17:30;4.37;;;3.83;;
6306;SDS011;3186;54.062;9.962;2023-07-29T04:19:56;5.23;;;3.90;;
6306;SDS011;3186;54.062;9.962;2023-07-29T04:22:27;3.83;;;3.43;;
6306;SDS011;3186;54.062;9.962;2023-07-29T04:24:53;7.23;;;4.20;;
6306;SDS011;3186;54.062;9.962;2023-07-29T04:27:19;4.23;;;3.80;;
6306;SDS011;3186;54.062;9.962;2023-07-29T04:29:45;5.53;;;3.80;;
6306;SDS011;3186;54.062;9.962;2023-07-29T04:32:11;5.20;;;3.67;;
6306;SDS011;3186;54.062;9.962;2023-07-29T04:34:37;4.90;;;3.23;;
6306;SDS011;3186;54.062;9.962;2023-07-29T04:37:03;6.07;;;3.70;;
6306;SDS011;3186;54.062;9.962;2023-07-29T04:39:29;6.27;;;4.00;;
6306;SDS011;3186;54.062;9.962;2023-07-29T04:41:55;4.03;;;3.60;;
6306;SDS011;3186;54.062;9.962;2023-07-29T04:44:22;3.33;;;3.03;;
6306;SDS011;3186;54.062;9.962;2023-07-29T04:46:48;5.10;;;3.90;;
6306;SDS011;3186;54.062;9.962;2023-07-29T04:49:15;5.13;;;3.80;;
6306;SDS011;3186;54.062;9.962;2023-07-29T04:51:41;3.87;;;3.47;;
6306;SDS011;3186;54.062;9.962;2023-07-29T04:54:07;3.53;;;3.23;;
6306;SDS011;3186;54.062;9.962;2023-07-29T04:56:33;3.87;;;3.30;;
6306;SDS011;3186;54.062;9.962;2023-07-29T04:58:59;4.80;;;3.40;;
6306;SDS011;3186;54.062;9.962;2023-07-29T05:01:24;4.10;;;3.60;;
6306;SDS011;3186;54.062;9.962;2023-07-29T05:03:51;5.50;;;3.73;;
6306;SDS011;3186;54.062;9.962;2023-07-29T05:06:17;3.90;;;3.50;;
6306;SDS011;3186;54.062;9.962;2023-07-29T05:08:43;6.67;;;4.00;;
6306;SDS011;3186;54.062;9.962;2023-07-29T05:11:09;6.97;;;3.70;;
6306;SDS011;3186;54.062;9.962;2023-07-29T05:13:35;3.90;;;3.47;;
6306;SDS011;3186;54.062;9.962;2023-07-29T05:16:02;8.47;;;3.70;;
6306;SDS011;3186;54.062;9.962;2023-07-29T05:18:28;4.13;;;3.37;;
6306;SDS011;3186;54.062;9.962;2023-07-29T05:20:54;4.80;;;3.17;;
6306;SDS011;3186;54.062;9.962;2023-07-29T05:23:21;3.67;;;3.20;;
6306;SDS011;3186;54.062;9.962;2023-07-29T05:25:47;4.17;;;3.53;;
6306;SDS011;3186;54.062;9.962;2023-07-29T05:28:14;8.17;;;6.33;;
6306;SDS011;3186;54.062;9.962;2023-07-29T05:30:39;6.83;;;5.10;;
6306;SDS011;3186;54.062;9.962;2023-07-29T05:33:06;10.70;;;7.13;;
6306;SDS011;3186;54.062;9.962;2023-07-29T05:35:34;7.50;;;5.60;;
6306;SDS011;3186;54.062;9.962;2023-07-29T05:38:01;11.10;;;7.90;;
6306;SDS011;3186;54.062;9.962;2023-07-29T05:40:29;9.53;;;8.53;;
6306;SDS011;3186;54.062;9.962;2023-07-29T05:42:55;7.67;;;6.23;;
6306;SDS011;3186;54.062;9.962;2023-07-29T05:45:21;10.07;;;9.07;;
6306;SDS011;3186;54.062;9.962;2023-07-29T05:47:47;11.73;;;9.33;;
6306;SDS011;3186;54.062;9.962;2023-07-29T05:50:13;10.50;;;9.43;;
6306;SDS011;3186;54.062;9.962;2023-07-29T05:52:39;5.27;;;4.77;;
6306;SDS011;3186;54.062;9.962;2023-07-29T05:55:06;13.23;;;11.13;;
6306;SDS011;3186;54.062;9.962;2023-07-29T05:57:32;17.90;;;12.73;;
6306;SDS011;3186;54.062;9.962;2023-07-29T05:59:58;11.93;;;10.53;;
6306;SDS011;3186;54.062;9.962;2023-07-29T06:02:24;16.97;;;12.63;;
6306;SDS011;3186;54.062;9.962;2023-07-29T06:04:51;14.43;;;12.60;;
6306;SDS011;3186;54.062;9.962;2023-07-29T06:07:17;10.60;;;9.27;;
6306;SDS011;3186;54.062;9.962;2023-07-29T06:09:43;5.23;;;4.67;;
6306;SDS011;3186;54.062;9.962;2023-07-29T06:12:10;5.50;;;4.90;;
6306;SDS011;3186;54.062;9.962;2023-07-29T06:14:35;15.63;;;11.30;;
6306;SDS011;3186;54.062;9.962;2023-07-29T06:17:02;12.20;;;9.73;;
6306;SDS011;3186;54.062;9.962;2023-07-29T06:19:28;11.40;;;9.20;;
6306;SDS011;3186;54.062;9.962;2023-07-29T06:21:57;15.83;;;12.57;;
6306;SDS011;3186;54.062;9.962;2023-07-29T06:24:23;16.27;;;13.07;;
6306;SDS011;3186;54.062;9.962;2023-07-29T06:26:49;22.23;;;12.67;;
6306;SDS011;3186;54.062;9.962;2023-07-29T06:29:14;7.23;;;6.10;;
6306;SDS011;3186;54.062;9.962;2023-07-29T06:31:40;15.27;;;13.17;;
6306;SDS011;3186;54.062;9.962;2023-07-29T06:34:06;11.97;;;10.50;;
6306;SDS011;3186;54.062;9.962;2023-07-29T06:36:32;19.77;;;14.23;;
6306;SDS011;3186;54.062;9.962;2023-07-29T06:38:58;13.50;;;11.07;;
6306;SDS011;3186;54.062;9.962;2023-07-29T06:41:24;15.30;;;12.07;;
6306;SDS011;3186;54.062;9.962;2023-07-29T06:43:49;17.17;;;14.23;;
6306;SDS011;3186;54.062;9.962;2023-07-29T06:46:15;18.03;;;15.63;;
6306;SDS011;3186;54.062;9.962;2023-07-29T06:48:41;20.13;;;15.03;;
6306;SDS011;3186;54.062;9.962;2023-07-29T06:51:07;11.20;;;8.77;;
6306;SDS011;3186;54.062;9.962;2023-07-29T06:53:33;15.80;;;14.07;;
6306;SDS011;3186;54.062;9.962;2023-07-29T06:55:59;11.87;;;10.57;;
6306;SDS011;3186;54.062;9.962;2023-07-29T06:58:25;12.47;;;11.03;;
6306;SDS011;3186;54.062;9.962;2023-07-29T07:00:51;13.00;;;10.27;;
6306;SDS011;3186;54.062;9.962;2023-07-29T07:03:18;13.47;;;11.47;;
6306;SDS011;3186;54.062;9.962;2023-07-29T07:05:45;15.90;;;14.13;;
6306;SDS011;3186;54.062;9.962;2023-07-29T07:08:10;19.20;;;13.73;;
6306;SDS011;3186;54.062;9.962;2023-07-29T07:10:36;15.47;;;13.67;;
6306;SDS011;3186;54.062;9.962;2023-07-29T07:13:02;17.03;;;12.30;;
6306;SDS011;3186;54.062;9.962;2023-07-29T07:15:28;11.97;;;9.97;;
6306;SDS011;3186;54.062;9.962;2023-07-29T07:17:53;15.80;;;14.17;;
6306;SDS011;3186;54.062;9.962;2023-07-29T07:20:19;14.10;;;12.63;;
6306;SDS011;3186;54.062;9.962;2023-07-29T07:22:45;18.20;;;14.83;;
6306;SDS011;3186;54.062;9.962;2023-07-29T07:25:11;15.17;;;11.23;;
6306;SDS011;3186;54.062;9.962;2023-07-29T07:27:37;18.77;;;12.73;;
6306;SDS011;3186;54.062;9.962;2023-07-29T07:30:04;17.17;;;14.80;;
6306;SDS011;3186;54.062;9.962;2023-07-29T07:32:30;17.27;;;13.43;;
6306;SDS011;3186;54.062;9.962;2023-07-29T07:34:56;17.70;;;14.57;;
6306;SDS011;3186;54.062;9.962;2023-07-29T07:37:22;19.70;;;12.63;;
6306;SDS011;3186;54.062;9.962;2023-07-29T07:39:47;13.37;;;11.77;;
6306;SDS011;3186;54.062;9.962;2023-07-29T07:42:14;14.27;;;12.53;;
6306;SDS011;3186;54.062;9.962;2023-07-29T07:44:40;19.27;;;14.90;;
6306;SDS011;3186;54.062;9.962;2023-07-29T07:47:06;14.20;;;12.73;;
6306;SDS011;3186;54.062;9.962;2023-07-29T07:49:32;17.27;;;14.40;;
6306;SDS011;3186;54.062;9.962;2023-07-29T07:51:58;17.07;;;14.10;;
6306;SDS011;3186;54.062;9.962;2023-07-29T07:54:23;17.73;;;14.50;;
6306;SDS011;3186;54.062;9.962;2023-07-29T07:56:49;14.70;;;11.77;;
6306;SDS011;3186;54.062;9.962;2023-07-29T07:59:15;13.40;;;10.20;;
6306;SDS011;3186;54.062;9.962;2023-07-29T08:01:41;10.83;;;8.63;;
6306;SDS011;3186;54.062;9.962;2023-07-29T08:04:08;12.07;;;10.73;;
6306;SDS011;3186;54.062;9.962;2023-07-29T08:06:33;13.20;;;8.67;;
6306;SDS011;3186;54.062;9.962;2023-07-29T08:09:00;13.87;;;11.60;;
6306;SDS011;3186;54.062;9.962;2023-07-29T08:11:26;12.53;;;9.23;;
6306;SDS011;3186;54.062;9.962;2023-07-29T08:13:52;9.17;;;6.93;;
6306;SDS011;3186;54.062;9.962;2023-07-29T08:16:18;16.87;;;12.80;;
6306;SDS011;3186;54.062;9.962;2023-07-29T08:18:43;14.33;;;12.17;;
6306;SDS011;3186;54.062;9.962;2023-07-29T08:21:09;12.17;;;8.27;;
6306;SDS011;3186;54.062;9.962;2023-07-29T08:23:35;15.17;;;9.90;;
6306;SDS011;3186;54.062;9.962;2023-07-29T08:26:03;17.07;;;12.43;;
6306;SDS011;3186;54.062;9.962;2023-07-29T08:28:31;9.00;;;8.07;;
6306;SDS011;3186;54.062;9.962;2023-07-29T08:30:58;13.80;;;11.00;;
6306;SDS011;3186;54.062;9.962;2023-07-29T08:33:24;13.03;;;10.17;;
6306;SDS011;3186;54.062;9.962;2023-07-29T08:35:51;13.50;;;12.07;;
6306;SDS011;3186;54.062;9.962;2023-07-29T08:38:16;10.07;;;8.97;;
6306;SDS011;3186;54.062;9.962;2023-07-29T08:44:02;12.33;;;10.60;;
6306;SDS011;3186;54.062;9.962;2023-07-29T08:46:38;9.90;;;8.30;;
6306;SDS011;3186;54.062;9.962;2023-07-29T08:49:04;11.40;;;10.20;;
6306;SDS011;3186;54.062;9.962;2023-07-29T08:51:31;15.37;;;11.67;;
6306;SDS011;3186;54.062;9.962;2023-07-29T08:53:58;11.33;;;10.13;;
6306;SDS011;3186;54.062;9.962;2023-07-29T08:56:25;13.37;;;10.90;;
6306;SDS011;3186;54.062;9.962;2023-07-29T08:58:52;13.23;;;9.47;;
6306;SDS011;3186;54.062;9.962;2023-07-29T09:01:18;12.77;;;10.70;;
6306;SDS011;3186;54.062;9.962;2023-07-29T09:03:44;9.60;;;8.57;;
6306;SDS011;3186;54.062;9.962;2023-07-29T09:06:10;10.40;;;9.13;;
6306;SDS011;3186;54.062;9.962;2023-07-29T09:08:39;16.90;;;12.37;;
6306;SDS011;3186;54.062;9.962;2023-07-29T09:11:05;14.10;;;11.20;;
6306;SDS011;3186;54.062;9.962;2023-07-29T09:13:32;17.67;;;12.93;;
6306;SDS011;3186;54.062;9.962;2023-07-29T09:15:58;16.53;;;12.13;;
6306;SDS011;3186;54.062;9.962;2023-07-29T09:18:23;15.07;;;11.87;;
6306;SDS011;3186;54.062;9.962;2023-07-29T09:20:52;15.03;;;12.70;;
6306;SDS011;3186;54.062;9.962;2023-07-29T09:23:18;13.90;;;10.27;;
6306;SDS011;3186;54.062;9.962;2023-07-29T09:25:45;14.83;;;11.20;;
6306;SDS011;3186;54.062;9.962;2023-07-29T09:28:15;12.83;;;10.87;;
6306;SDS011;3186;54.062;9.962;2023-07-29T09:30:42;11.17;;;8.60;;
6306;SDS011;3186;54.062;9.962;2023-07-29T09:33:10;12.13;;;9.53;;
6306;SDS011;3186;54.062;9.962;2023-07-29T09:35:36;12.73;;;11.43;;
6306;SDS011;3186;54.062;9.962;2023-07-29T09:38:04;12.53;;;9.27;;
6306;SDS011;3186;54.062;9.962;2023-07-29T09:40:34;9.97;;;8.87;;
6306;SDS011;3186;54.062;9.962;2023-07-29T09:43:04;12.33;;;9.53;;
6306;SDS011;3186;54.062;9.962;2023-07-29T09:45:32;12.00;;;8.23;;
6306;SDS011;3186;54.062;9.962;2023-07-29T09:47:59;9.80;;;8.80;;
6306;SDS011;3186;54.062;9.962;2023-07-29T09:50:26;8.43;;;7.47;;
6306;SDS011;3186;54.062;9.962;2023-07-29T09:52:53;9.00;;;7.63;;
6306;SDS011;3186;54.062;9.962;2023-07-29T09:55:21;10.37;;;7.67;;
6306;SDS011;3186;54.062;9.962;2023-07-29T09:57:52;8.60;;;7.80;;
6306;SDS011;3186;54.062;9.962;2023-07-29T10:00:19;10.13;;;7.80;;
6306;SDS011;3186;54.062;9.962;2023-07-29T10:02:45;14.67;;;7.13;;
6306;SDS011;3186;54.062;9.962;2023-07-29T10:05:12;8.20;;;6.50;;
6306;SDS011;3186;54.062;9.962;2023-07-29T10:07:38;8.00;;;5.67;;
6306;SDS011;3186;54.062;9.962;2023-07-29T10:10:05;5.70;;;4.67;;
6306;SDS011;3186;54.062;9.962;2023-07-29T10:12:34;5.93;;;4.97;;
6306;SDS011;3186;54.062;9.962;2023-07-29T10:15:02;6.37;;;4.60;;
6306;SDS011;3186;54.062;9.962;2023-07-29T10:17:33;5.27;;;4.40;;
6306;SDS011;3186;54.062;9.962;2023-07-29T10:20:01;5.53;;;4.57;;
6306;SDS011;3186;54.062;9.962;2023-07-29T10:22:33;4.13;;;3.73;;
6306;SDS011;3186;54.062;9.962;2023-07-29T10:25:08;3.43;;;3.13;;
6306;SDS011;3186;54.062;9.962;2023-07-29T10:27:55;3.30;;;3.00;;
6306;SDS011;3186;54.062;9.962;2023-07-29T10:30:22;3.33;;;2.70;;
6306;SDS011;3186;54.062;9.962;2023-07-29T10:32:50;3.17;;;2.87;;
6306;SDS011;3186;54.062;9.962;2023-07-29T10:35:18;5.47;;;2.97;;
6306;SDS011;3186;54.062;9.962;2023-07-29T10:37:44;3.13;;;2.83;;
6306;SDS011;3186;54.062;9.962;2023-07-29T10:40:16;2.70;;;2.50;;
6306;SDS011;3186;54.062;9.962;2023-07-29T10:43:10;3.00;;;2.70;;
6306;SDS011;3186;54.062;9.962;2023-07-29T10:45:41;5.03;;;2.47;;
6306;SDS011;3186;54.062;9.962;2023-07-29T10:48:11;4.93;;;2.77;;
6306;SDS011;3186;54.062;9.962;2023-07-29T10:50:38;3.70;;;2.97;;
6306;SDS011;3186;54.062;9.962;2023-07-29T10:53:04;3.93;;;2.40;;
6306;SDS011;3186;54.062;9.962;2023-07-29T10:55:34;4.03;;;2.70;;
6306;SDS011;3186;54.062;9.962;2023-07-29T10:58:06;5.13;;;3.07;;
6306;SDS011;3186;54.062;9.962;2023-07-29T11:00:33;3.50;;;2.73;;
6306;SDS011;3186;54.062;9.962;2023-07-29T11:03:00;2.53;;;2.37;;
6306;SDS011;3186;54.062;9.962;2023-07-29T11:05:43;3.10;;;2.70;;
6306;SDS011;3186;54.062;9.962;2023-07-29T11:08:20;3.23;;;2.50;;
6306;SDS011;3186;54.062;9.962;2023-07-29T11:13:27;3.83;;;2.70;;
6306;SDS011;3186;54.062;9.962;2023-07-29T11:15:53;3.17;;;2.87;;
6306;SDS011;3186;54.062;9.962;2023-07-29T11:18:21;2.63;;;2.43;;
6306;SDS011;3186;54.062;9.962;2023-07-29T11:20:47;4.20;;;2.50;;
6306;SDS011;3186;54.062;9.962;2023-07-29T11:23:14;2.73;;;2.53;;
6306;SDS011;3186;54.062;9.962;2023-07-29T11:25:40;2.10;;;1.90;;
6306;SDS011;3186;54.062;9.962;2023-07-29T11:28:05;2.93;;;2.33;;
6306;SDS011;3186;54.062;9.962;2023-07-29T11:30:31;2.73;;;2.53;;
6306;SDS011;3186;54.062;9.962;2023-07-29T11:32:58;2.60;;;2.40;;
6306;SDS011;3186;54.062;9.962;2023-07-29T11:35:24;2.47;;;2.27;;
6306;SDS011;3186;54.062;9.962;2023-07-29T11:37:51;2.50;;;2.30;;
6306;SDS011;3186;54.062;9.962;2023-07-29T11:40:18;2.13;;;2.03;;
6306;SDS011;3186;54.062;9.962;2023-07-29T11:42:46;2.33;;;2.17;;
6306;SDS011;3186;54.062;9.962;2023-07-29T11:45:13;2.60;;;2.40;;
6306;SDS011;3186;54.062;9.962;2023-07-29T11:47:39;1.83;;;1.73;;
6306;SDS011;3186;54.062;9.962;2023-07-29T11:50:06;2.47;;;2.17;;
6306;SDS011;3186;54.062;9.962;2023-07-29T11:52:42;2.00;;;1.80;;
6306;SDS011;3186;54.062;9.962;2023-07-29T11:55:11;4.57;;;1.97;;
6306;SDS011;3186;54.062;9.962;2023-07-29T11:57:40;2.97;;;1.73;;
6306;SDS011;3186;54.062;9.962;2023-07-29T12:00:08;1.80;;;1.70;;
6306;SDS011;3186;54.062;9.962;2023-07-29T12:02:37;1.50;;;1.40;;
6306;SDS011;3186;54.062;9.962;2023-07-29T12:05:05;1.80;;;1.70;;
6306;SDS011;3186;54.062;9.962;2023-07-29T12:07:33;1.63;;;1.53;;
6306;SDS011;3186;54.062;9.962;2023-07-29T12:09:59;1.47;;;1.40;;
6306;SDS011;3186;54.062;9.962;2023-07-29T12:12:28;3.07;;;1.73;;
6306;SDS011;3186;54.062;9.962;2023-07-29T12:14:54;1.80;;;1.70;;
6306;SDS011;3186;54.062;9.962;2023-07-29T12:17:20;1.67;;;1.57;;
6306;SDS011;3186;54.062;9.962;2023-07-29T12:19:46;1.87;;;1.57;;
6306;SDS011;3186;54.062;9.962;2023-07-29T12:22:17;2.60;;;1.60;;
6306;SDS011;3186;54.062;9.962;2023-07-29T12:24:44;1.93;;;1.20;;
6306;SDS011;3186;54.062;9.962;2023-07-29T12:27:11;2.30;;;1.30;;
6306;SDS011;3186;54.062;9.962;2023-07-29T12:29:44;1.97;;;1.40;;
6306;SDS011;3186;54.062;9.962;2023-07-29T12:32:11;1.50;;;1.40;;
6306;SDS011;3186;54.062;9.962;2023-07-29T12:34:38;1.83;;;1.50;;
6306;SDS011;3186;54.062;9.962;2023-07-29T12:37:06;1.30;;;1.20;;
6306;SDS011;3186;54.062;9.962;2023-07-29T12:39:33;2.07;;;1.50;;
6306;SDS011;3186;54.062;9.962;2023-07-29T12:42:01;3.97;;;1.43;;
6306;SDS011;3186;54.062;9.962;2023-07-29T12:44:32;4.00;;;1.60;;
6306;SDS011;3186;54.062;9.962;2023-07-29T12:47:03;2.83;;;2.03;;
6306;SDS011;3186;54.062;9.962;2023-07-29T12:49:30;2.80;;;1.73;;
6306;SDS011;3186;54.062;9.962;2023-07-29T12:51:57;1.67;;;1.57;;
6306;SDS011;3186;54.062;9.962;2023-07-29T12:54:23;1.57;;;1.47;;
6306;SDS011;3186;54.062;9.962;2023-07-29T12:56:49;1.70;;;1.60;;
6306;SDS011;3186;54.062;9.962;2023-07-29T12:59:15;1.80;;;1.70;;
6306;SDS011;3186;54.062;9.962;2023-07-29T13:01:41;2.10;;;1.90;;
6306;SDS011;3186;54.062;9.962;2023-07-29T13:04:07;3.70;;;1.37;;
6306;SDS011;3186;54.062;9.962;2023-07-29T13:06:34;2.93;;;1.60;;
6306;SDS011;3186;54.062;9.962;2023-07-29T13:09:00;2.30;;;1.40;;
6306;SDS011;3186;54.062;9.962;2023-07-29T13:11:25;1.90;;;1.40;;
6306;SDS011;3186;54.062;9.962;2023-07-29T13:13:51;2.20;;;1.60;;
6306;SDS011;3186;54.062;9.962;2023-07-29T13:16:17;2.07;;;1.77;;
6306;SDS011;3186;54.062;9.962;2023-07-29T13:18:43;3.00;;;1.67;;
6306;SDS011;3186;54.062;9.962;2023-07-29T13:21:09;1.60;;;1.50;;
6306;SDS011;3186;54.062;9.962;2023-07-29T13:23:36;3.47;;;1.90;;
6306;SDS011;3186;54.062;9.962;2023-07-29T13:26:02;2.80;;;2.00;;
6306;SDS011;3186;54.062;9.962;2023-07-29T13:28:28;2.03;;;1.80;;
6306;SDS011;3186;54.062;9.962;2023-07-29T13:30:54;2.90;;;1.60;;
6306;SDS011;3186;54.062;9.962;2023-07-29T13:33:21;2.07;;;1.50;;
6306;SDS011;3186;54.062;9.962;2023-07-29T13:35:47;1.60;;;1.50;;
6306;SDS011;3186;54.062;9.962;2023-07-29T13:38:12;2.40;;;1.90;;
6306;SDS011;3186;54.062;9.962;2023-07-29T13:40:38;1.90;;;1.80;;
6306;SDS011;3186;54.062;9.962;2023-07-29T13:43:04;2.23;;;1.77;;
6306;SDS011;3186;54.062;9.962;2023-07-29T13:45:30;3.00;;;1.80;;
6306;SDS011;3186;54.062;9.962;2023-07-29T13:47:57;2.23;;;1.67;;
6306;SDS011;3186;54.062;9.962;2023-07-29T13:50:23;2.20;;;1.87;;
6306;SDS011;3186;54.062;9.962;2023-07-29T13:52:49;4.20;;;1.83;;
6306;SDS011;3186;54.062;9.962;2023-07-29T13:55:15;3.20;;;1.50;;
6306;SDS011;3186;54.062;9.962;2023-07-29T13:57:41;4.07;;;1.80;;
6306;SDS011;3186;54.062;9.962;2023-07-29T14:00:08;2.03;;;1.53;;
6306;SDS011;3186;54.062;9.962;2023-07-29T14:02:36;2.50;;;1.83;;
6306;SDS011;3186;54.062;9.962;2023-07-29T14:05:02;2.63;;;1.50;;
6306;SDS011;3186;54.062;9.962;2023-07-29T14:07:28;2.07;;;1.90;;
6306;SDS011;3186;54.062;9.962;2023-07-29T14:09:55;2.20;;;1.90;;
6306;SDS011;3186;54.062;9.962;2023-07-29T14:12:20;1.80;;;1.70;;
6306;SDS011;3186;54.062;9.962;2023-07-29T14:14:47;1.90;;;1.70;;
6306;SDS011;3186;54.062;9.962;2023-07-29T14:17:13;2.27;;;1.83;;
6306;SDS011;3186;54.062;9.962;2023-07-29T14:19:38;3.47;;;1.77;;
6306;SDS011;3186;54.062;9.962;2023-07-29T14:22:04;2.87;;;1.60;;
6306;SDS011;3186;54.062;9.962;2023-07-29T14:24:30;2.73;;;1.67;;
6306;SDS011;3186;54.062;9.962;2023-07-29T14:26:57;1.70;;;1.50;;
6306;SDS011;3186;54.062;9.962;2023-07-29T14:29:23;1.70;;;1.60;;
6306;SDS011;3186;54.062;9.962;2023-07-29T14:31:48;1.93;;;1.73;;
6306;SDS011;3186;54.062;9.962;2023-07-29T14:34:14;2.20;;;1.73;;
6306;SDS011;3186;54.062;9.962;2023-07-29T14:36:40;4.67;;;2.07;;
6306;SDS011;3186;54.062;9.962;2023-07-29T14:39:06;3.30;;;2.47;;
6306;SDS011;3186;54.062;9.962;2023-07-29T14:41:32;2.87;;;1.67;;
6306;SDS011;3186;54.062;9.962;2023-07-29T14:43:58;2.47;;;1.90;;
6306;SDS011;3186;54.062;9.962;2023-07-29T14:46:24;3.40;;;2.03;;
6306;SDS011;3186;54.062;9.962;2023-07-29T14:48:50;4.73;;;1.73;;
6306;SDS011;3186;54.062;9.962;2023-07-29T14:51:16;3.73;;;2.00;;
6306;SDS011;3186;54.062;9.962;2023-07-29T14:53:42;2.10;;;1.93;;
6306;SDS011;3186;54.062;9.962;2023-07-29T14:56:08;4.23;;;2.03;;
6306;SDS011;3186;54.062;9.962;2023-07-29T14:58:34;5.30;;;1.80;;
6306;SDS011;3186;54.062;9.962;2023-07-29T15:00:59;2.97;;;1.83;;
6306;SDS011;3186;54.062;9.962;2023-07-29T15:03:25;2.80;;;2.00;;
6306;SDS011;3186;54.062;9.962;2023-07-29T15:05:51;1.80;;;1.67;;
6306;SDS011;3186;54.062;9.962;2023-07-29T15:08:17;2.20;;;2.00;;
6306;SDS011;3186;54.062;9.962;2023-07-29T15:10:46;2.60;;;1.97;;
6306;SDS011;3186;54.062;9.962;2023-07-29T15:13:13;2.10;;;1.90;;
6306;SDS011;3186;54.062;9.962;2023-07-29T15:15:43;2.63;;;2.10;;
6306;SDS011;3186;54.062;9.962;2023-07-29T15:18:09;2.07;;;1.60;;
6306;SDS011;3186;54.062;9.962;2023-07-29T15:20:35;2.40;;;1.97;;